createdAt,value
2022-08-30T00:02:01.660Z,4.88
2022-08-30T00:04:28.798Z,4.63
2022-08-30T00:06:55.918Z,5.00
2022-08-30T00:09:23.147Z,4.70
2022-08-30T00:11:50.302Z,5.10
2022-08-30T00:14:17.563Z,5.05
2022-08-30T00:16:46.103Z,4.75
2022-08-30T00:19:13.261Z,4.85
2022-08-30T00:21:40.478Z,5.05
2022-08-30T00:24:07.696Z,4.70
2022-08-30T00:26:34.838Z,4.93
2022-08-30T00:29:02.077Z,4.72
2022-08-30T00:31:29.326Z,4.95
2022-08-30T00:33:57.834Z,4.80
2022-08-30T00:36:25.034Z,4.75
2022-08-30T00:38:52.143Z,5.03
2022-08-30T00:41:19.276Z,5.00
2022-08-30T00:43:46.470Z,4.93
2022-08-30T00:46:13.648Z,5.15
2022-08-30T00:48:44.142Z,5.00
2022-08-30T00:51:15.266Z,5.38
2022-08-30T00:56:15.098Z,5.15
2022-08-30T00:58:45.510Z,4.90
2022-08-30T01:01:13.254Z,5.10
2022-08-30T01:03:41.453Z,4.95
2022-08-30T01:06:09.102Z,5.00
2022-08-30T01:08:37.711Z,5.03
2022-08-30T01:11:05.222Z,4.80
2022-08-30T01:13:35.025Z,4.60
2022-08-30T01:16:02.861Z,4.95
2022-08-30T01:18:31.503Z,4.95
2022-08-30T01:21:05.426Z,4.78
2022-08-30T01:23:36.338Z,4.90
2022-08-30T01:26:06.261Z,4.67
2022-08-30T01:28:34.223Z,4.60
2022-08-30T01:31:01.469Z,4.57
2022-08-30T01:33:29.163Z,5.05
2022-08-30T01:35:58.204Z,4.70
2022-08-30T01:38:28.625Z,4.82
2022-08-30T01:41:07.979Z,4.88
2022-08-30T01:43:35.181Z,4.97
2022-08-30T01:46:02.801Z,5.22
2022-08-30T01:48:31.175Z,5.03
2022-08-30T01:50:58.789Z,5.18
2022-08-30T01:53:26.051Z,4.90
2022-08-30T01:55:53.180Z,5.03
2022-08-30T01:58:21.803Z,5.18
2022-08-30T02:00:48.979Z,4.80
2022-08-30T02:03:16.339Z,5.03
2022-08-30T02:05:43.634Z,5.15
2022-08-30T02:08:10.832Z,4.90
2022-08-30T02:10:37.969Z,5.13
2022-08-30T02:13:05.109Z,5.10
2022-08-30T02:15:41.551Z,4.93
2022-08-30T02:18:09.168Z,4.82
2022-08-30T02:20:38.625Z,4.90
2022-08-30T02:23:05.827Z,5.20
2022-08-30T02:25:32.959Z,4.97
2022-08-30T02:28:00.165Z,5.07
2022-08-30T02:30:27.653Z,4.75
2022-08-30T02:32:56.166Z,4.78
2022-08-30T02:35:23.545Z,5.55
2022-08-30T02:37:50.713Z,4.82
2022-08-30T02:40:18.233Z,5.13
2022-08-30T02:42:45.454Z,4.90
2022-08-30T02:45:12.599Z,4.57
2022-08-30T02:47:42.608Z,4.88
2022-08-30T02:52:42.490Z,5.20
2022-08-30T02:55:12.344Z,5.22
2022-08-30T02:57:39.481Z,4.72
2022-08-30T03:00:08.319Z,4.97
2022-08-30T03:02:35.568Z,4.97
2022-08-30T03:05:03.328Z,4.90
2022-08-30T03:07:31.867Z,5.35
2022-08-30T03:09:58.983Z,5.18
2022-08-30T03:12:26.183Z,5.00
2022-08-30T03:14:53.366Z,4.93
2022-08-30T03:17:20.527Z,4.60
2022-08-30T03:19:47.710Z,5.07
2022-08-30T03:22:15.276Z,4.70
2022-08-30T03:24:43.834Z,4.60
2022-08-30T03:27:11.339Z,5.05
2022-08-30T03:29:38.576Z,4.82
2022-08-30T03:32:06.169Z,5.13
2022-08-30T03:34:33.319Z,5.00
2022-08-30T03:37:00.676Z,4.75
2022-08-30T03:39:28.190Z,5.13
2022-08-30T03:41:56.676Z,5.22
2022-08-30T03:44:24.043Z,4.50
2022-08-30T03:46:51.487Z,4.95
2022-08-30T03:49:19.218Z,5.00
2022-08-30T03:51:46.418Z,4.75
2022-08-30T03:54:13.618Z,4.75
2022-08-30T03:56:41.199Z,5.32
2022-08-30T03:59:09.774Z,4.80
2022-08-30T04:01:36.989Z,4.63
2022-08-30T04:04:04.327Z,5.22
2022-08-30T04:06:31.455Z,5.10
2022-08-30T04:08:58.603Z,5.00
2022-08-30T04:11:25.787Z,4.38
2022-08-30T04:13:52.895Z,4.45
2022-08-30T04:16:21.644Z,4.43
2022-08-30T04:18:49.114Z,4.88
2022-08-30T04:21:16.558Z,4.60
2022-08-30T04:23:43.963Z,6.68
2022-08-30T04:26:11.399Z,9.25
2022-08-30T04:28:38.572Z,11.18
2022-08-30T04:31:11.752Z,9.57
2022-08-30T04:33:41.371Z,7.65
2022-08-30T04:36:09.858Z,6.72
2022-08-30T04:38:38.243Z,7.60
2022-08-30T04:41:10.310Z,6.68
2022-08-30T04:43:37.562Z,6.22
2022-08-30T04:46:06.967Z,7.03
2022-08-30T04:48:34.690Z,7.10
2022-08-30T04:51:05.078Z,6.30
2022-08-30T04:53:32.731Z,6.10
2022-08-30T04:55:59.890Z,5.80
2022-08-30T04:58:27.319Z,6.25
2022-08-30T05:00:54.495Z,5.78
2022-08-30T05:03:21.950Z,5.75
2022-08-30T05:05:50.387Z,6.00
2022-08-30T05:08:24.479Z,6.38
2022-08-30T05:10:52.464Z,5.90
2022-08-30T05:13:21.221Z,5.93
2022-08-30T05:16:04.907Z,6.13
2022-08-30T05:18:32.473Z,6.00
2022-08-30T05:21:08.438Z,5.95
2022-08-30T05:23:38.140Z,6.45
2022-08-30T05:26:06.772Z,6.47
2022-08-30T05:28:34.783Z,6.65
2022-08-30T05:31:02.227Z,6.40
2022-08-30T05:33:29.533Z,6.55
2022-08-30T05:35:56.680Z,6.57
2022-08-30T05:38:23.845Z,6.38
2022-08-30T05:40:53.951Z,6.70
2022-08-30T05:43:21.540Z,6.20
2022-08-30T05:45:58.894Z,6.40
2022-08-30T05:48:26.040Z,6.57
2022-08-30T05:51:06.032Z,6.53
2022-08-30T05:53:33.393Z,6.40
2022-08-30T05:56:03.113Z,6.85
2022-08-30T05:58:30.808Z,6.20
2022-08-30T06:00:58.351Z,6.68
2022-08-30T06:03:26.336Z,6.65
2022-08-30T06:05:55.326Z,6.20
2022-08-30T06:08:22.701Z,6.82
2022-08-30T06:10:50.121Z,6.47
2022-08-30T06:13:18.618Z,5.93
2022-08-30T06:15:45.813Z,6.72
2022-08-30T06:18:13.442Z,6.40
2022-08-30T06:20:41.390Z,6.40
2022-08-30T06:23:08.914Z,6.47
2022-08-30T06:25:41.872Z,6.78
2022-08-30T06:28:10.372Z,5.90
2022-08-30T06:30:40.714Z,6.88
2022-08-30T06:33:07.839Z,6.57
2022-08-30T06:35:46.687Z,6.47
2022-08-30T06:38:22.924Z,6.18
2022-08-30T06:40:50.028Z,6.65
2022-08-30T06:43:17.166Z,6.53
2022-08-30T06:45:45.670Z,6.07
2022-08-30T06:48:12.835Z,6.32
2022-08-30T06:50:40.065Z,6.50
2022-08-30T06:53:07.521Z,6.50
2022-08-30T06:55:34.858Z,6.00
2022-08-30T06:58:02.334Z,6.25
2022-08-30T07:00:29.944Z,6.65
2022-08-30T07:02:58.793Z,6.50
2022-08-30T07:05:26.062Z,6.07
2022-08-30T07:07:53.440Z,6.15
2022-08-30T07:10:21.094Z,6.10
2022-08-30T07:12:48.849Z,6.45
2022-08-30T07:15:16.655Z,6.10
2022-08-30T07:17:43.778Z,6.47
2022-08-30T07:20:12.509Z,5.93
2022-08-30T07:22:39.621Z,6.20
2022-08-30T07:25:07.099Z,6.22
2022-08-30T07:27:34.231Z,6.10
2022-08-30T07:30:01.774Z,5.97
2022-08-30T07:32:29.343Z,5.80
2022-08-30T07:34:56.514Z,6.30
2022-08-30T07:37:25.276Z,5.90
2022-08-30T07:39:52.660Z,6.30
2022-08-30T07:42:19.785Z,6.20
2022-08-30T07:44:47.686Z,6.70
2022-08-30T07:47:14.825Z,6.35
2022-08-30T07:49:42.081Z,6.13
2022-08-30T07:52:09.229Z,6.22
2022-08-30T07:54:37.768Z,6.05
2022-08-30T07:57:05.029Z,6.18
2022-08-30T07:59:35.579Z,6.05
2022-08-30T08:02:04.004Z,5.97
2022-08-30T08:04:31.179Z,6.38
2022-08-30T08:06:58.336Z,6.10
2022-08-30T08:09:25.465Z,6.53
2022-08-30T08:11:54.001Z,5.95
2022-08-30T08:14:21.419Z,6.15
2022-08-30T08:16:48.564Z,6.20
2022-08-30T08:19:16.026Z,6.45
2022-08-30T08:21:43.332Z,6.03
2022-08-30T08:24:10.511Z,6.03
2022-08-30T08:26:38.690Z,6.22
2022-08-30T08:29:09.917Z,6.00
2022-08-30T08:31:37.443Z,6.35
2022-08-30T08:34:05.482Z,6.13
2022-08-30T08:36:33.090Z,6.18
2022-08-30T08:39:00.725Z,5.93
2022-08-30T08:41:38.895Z,5.90
2022-08-30T08:44:14.147Z,5.97
2022-08-30T08:46:49.212Z,5.60
2022-08-30T08:49:16.489Z,6.03
2022-08-30T08:51:43.819Z,6.00
2022-08-30T08:54:13.763Z,5.70
2022-08-30T08:56:41.202Z,5.57
2022-08-30T08:59:11.451Z,5.82
2022-08-30T09:01:38.976Z,6.00
2022-08-30T09:04:11.639Z,6.15
2022-08-30T09:06:54.931Z,6.20
2022-08-30T09:09:26.384Z,6.00
2022-08-30T09:11:53.691Z,5.93
2022-08-30T09:14:30.293Z,5.90
2022-08-30T09:17:02.563Z,5.55
2022-08-30T09:19:44.092Z,5.63
2022-08-30T09:22:24.376Z,5.78
2022-08-30T09:24:54.184Z,6.00
2022-08-30T09:27:27.427Z,5.97
2022-08-30T09:29:59.892Z,5.45
2022-08-30T09:32:34.243Z,5.65
2022-08-30T09:35:01.938Z,5.75
2022-08-30T09:37:33.915Z,5.72
2022-08-30T09:40:02.767Z,5.70
2022-08-30T09:42:30.440Z,5.97
2022-08-30T09:44:58.961Z,5.85
2022-08-30T09:47:31.556Z,6.03
2022-08-30T09:50:05.800Z,6.13
2022-08-30T09:52:42.271Z,5.80
2022-08-30T09:55:24.623Z,6.78
2022-08-30T09:57:58.188Z,6.18
2022-08-30T10:00:30.180Z,6.20
2022-08-30T10:03:07.182Z,5.38
2022-08-30T10:05:52.719Z,6.25
2022-08-30T10:08:31.922Z,5.90
2022-08-30T10:11:03.054Z,5.72
2022-08-30T10:13:42.937Z,5.63
2022-08-30T10:16:21.961Z,5.97
2022-08-30T10:19:01.620Z,5.93
2022-08-30T10:21:38.605Z,5.68
2022-08-30T10:24:11.296Z,5.70
2022-08-30T10:26:45.415Z,5.80
2022-08-30T10:29:16.708Z,5.70
2022-08-30T10:31:50.197Z,5.90
2022-08-30T10:34:24.720Z,5.72
2022-08-30T10:36:56.875Z,5.85
2022-08-30T10:39:30.990Z,5.88
2022-08-30T10:42:06.213Z,5.95
2022-08-30T10:44:39.411Z,5.80
2022-08-30T10:47:23.310Z,5.65
2022-08-30T10:49:57.389Z,5.65
2022-08-30T10:52:33.036Z,5.88
2022-08-30T10:55:05.639Z,6.20
2022-08-30T10:57:33.232Z,5.87
2022-08-30T11:03:33.631Z,5.80
2022-08-30T11:06:12.476Z,5.68
2022-08-30T11:09:36.580Z,5.45
2022-08-30T11:12:31.121Z,5.60
2022-08-30T11:15:11.220Z,5.90
2022-08-30T11:17:45.492Z,6.10
2022-08-30T11:20:29.674Z,5.80
2022-08-30T11:23:20.882Z,5.90
2022-08-30T11:25:57.423Z,5.68
2022-08-30T11:28:58.421Z,5.18
2022-08-30T11:31:38.644Z,5.75
2022-08-30T11:34:09.686Z,5.65
2022-08-30T11:39:56.675Z,5.80
2022-08-30T11:42:33.640Z,5.53
2022-08-30T11:45:39.502Z,5.72
2022-08-30T11:50:39.586Z,5.38
2022-08-30T11:53:16.093Z,5.65
2022-08-30T11:55:52.934Z,5.80
2022-08-30T11:58:29.547Z,5.95
2022-08-30T12:01:50.273Z,5.78
2022-08-30T12:04:28.103Z,5.93
2022-08-30T12:06:57.658Z,5.60
2022-08-30T12:10:01.918Z,5.53
2022-08-30T12:12:52.457Z,5.37
2022-08-30T12:15:52.371Z,5.80
2022-08-30T12:18:26.709Z,5.72
2022-08-30T12:20:55.696Z,5.70
2022-08-30T12:23:32.598Z,6.00
2022-08-30T12:26:28.222Z,6.00
2022-08-30T12:29:10.297Z,5.70
2022-08-30T12:31:40.874Z,5.60
2022-08-30T12:34:08.722Z,5.72
2022-08-30T12:36:41.224Z,5.78
2022-08-30T12:39:12.050Z,5.15
2022-08-30T12:41:43.695Z,6.05
2022-08-30T12:44:16.876Z,4.82
2022-08-30T12:46:47.973Z,5.68
2022-08-30T12:49:17.569Z,5.45
2022-08-30T12:51:45.752Z,5.60
2022-08-30T12:54:19.642Z,5.85
2022-08-30T12:57:13.979Z,5.50
2022-08-30T12:59:56.875Z,5.53
2022-08-30T13:02:29.114Z,5.97
2022-08-30T13:04:56.841Z,5.38
2022-08-30T13:07:30.099Z,5.88
2022-08-30T13:10:04.179Z,5.22
2022-08-30T13:12:32.358Z,5.72
2022-08-30T13:15:17.012Z,5.53
2022-08-30T13:17:45.942Z,5.43
2022-08-30T13:20:26.236Z,5.43
2022-08-30T13:23:07.603Z,5.85
2022-08-30T13:25:38.570Z,5.40
2022-08-30T13:28:07.301Z,5.50
2022-08-30T13:30:35.821Z,5.28
2022-08-30T13:33:03.282Z,5.60
2022-08-30T13:35:31.250Z,5.32
2022-08-30T13:38:01.136Z,5.40
2022-08-30T13:40:28.357Z,5.63
2022-08-30T13:42:55.586Z,5.97
2022-08-30T13:48:12.414Z,5.50
2022-08-30T13:50:39.720Z,5.30
2022-08-30T13:53:06.966Z,5.18
2022-08-30T13:55:34.102Z,5.57
2022-08-30T13:58:02.078Z,5.65
2022-08-30T14:00:32.457Z,5.75
2022-08-30T14:03:03.885Z,5.88
2022-08-30T14:05:57.081Z,5.57
2022-08-30T14:11:12.713Z,5.97
2022-08-30T14:14:14.649Z,5.35
2022-08-30T14:16:29.190Z,5.72
2022-08-30T14:18:57.453Z,5.50
2022-08-30T14:21:26.417Z,5.88
2022-08-30T14:23:53.938Z,5.95
2022-08-30T14:26:23.089Z,5.55
2022-08-30T14:28:51.796Z,5.82
2022-08-30T14:31:19.806Z,5.60
2022-08-30T14:33:47.290Z,5.80
2022-08-30T14:36:15.731Z,5.70
2022-08-30T14:38:44.837Z,5.60
2022-08-30T14:41:12.109Z,5.50
2022-08-30T14:43:39.351Z,5.68
2022-08-30T14:46:07.385Z,5.50
2022-08-30T14:48:35.461Z,5.70
2022-08-30T14:51:10.809Z,5.53
2022-08-30T14:53:38.409Z,5.38
2022-08-30T14:56:09.104Z,5.78
2022-08-30T14:58:36.291Z,5.32
2022-08-30T15:01:07.128Z,6.00
2022-08-30T15:03:34.647Z,5.28
2022-08-30T15:06:02.073Z,5.32
2022-08-30T15:08:29.426Z,5.60
2022-08-30T15:10:56.951Z,5.80
2022-08-30T15:13:25.982Z,5.18
2022-08-30T15:15:53.500Z,5.18
2022-08-30T15:18:20.683Z,5.00
2022-08-30T15:20:48.851Z,5.15
2022-08-30T15:23:17.102Z,4.10
2022-08-30T15:28:17.117Z,4.72
2022-08-30T15:30:46.499Z,4.32
2022-08-30T15:33:13.647Z,3.67
2022-08-30T15:35:41.847Z,3.15
2022-08-30T15:38:09.158Z,3.00
2022-08-30T15:40:39.582Z,3.30
2022-08-30T15:43:06.986Z,3.53
2022-08-30T15:45:34.146Z,3.72
2022-08-30T15:48:03.112Z,3.40
2022-08-30T15:50:30.637Z,2.80
2022-08-30T15:52:57.750Z,3.40
2022-08-30T15:55:25.147Z,3.60
2022-08-30T15:57:53.630Z,3.20
2022-08-30T16:00:22.027Z,3.25
2022-08-30T16:02:50.150Z,3.10
2022-08-30T16:05:20.786Z,3.03
2022-08-30T16:07:47.929Z,3.83
2022-08-30T16:10:16.026Z,3.78
2022-08-30T16:12:43.123Z,3.65
2022-08-30T16:15:11.412Z,3.53
2022-08-30T16:17:38.686Z,3.40
2022-08-30T16:20:08.614Z,3.30
2022-08-30T16:22:37.114Z,3.50
2022-08-30T16:25:05.145Z,3.35
2022-08-30T16:27:34.439Z,2.80
2022-08-30T16:30:01.893Z,3.13
2022-08-30T16:32:29.213Z,3.08
2022-08-30T16:34:56.398Z,3.22
2022-08-30T16:37:23.519Z,2.80
2022-08-30T16:39:52.106Z,2.90
2022-08-30T16:42:21.327Z,2.90
2022-08-30T16:44:49.870Z,3.03
2022-08-30T16:47:17.676Z,3.00
2022-08-30T16:49:44.872Z,3.47
2022-08-30T16:52:12.194Z,2.97
2022-08-30T16:54:39.433Z,3.88
2022-08-30T16:57:08.069Z,4.40
2022-08-30T16:59:36.388Z,3.95
2022-08-30T17:02:04.237Z,3.80
2022-08-30T17:04:31.587Z,3.80
2022-08-30T17:06:58.794Z,4.82
2022-08-30T17:09:26.073Z,5.07
2022-08-30T17:11:53.191Z,4.68
2022-08-30T17:14:29.069Z,4.60
2022-08-30T17:16:57.362Z,4.78
2022-08-30T17:19:26.846Z,4.93
2022-08-30T17:21:56.410Z,5.30
2022-08-30T17:24:25.427Z,5.80
2022-08-30T17:26:52.771Z,5.72
2022-08-30T17:29:21.791Z,5.20
2022-08-30T17:31:51.246Z,5.47
2022-08-30T17:34:18.775Z,5.40
2022-08-30T17:36:45.911Z,5.15
2022-08-30T17:39:13.673Z,5.20
2022-08-30T17:41:45.391Z,4.90
2022-08-30T17:44:18.422Z,4.72
2022-08-30T17:46:47.175Z,4.65
2022-08-30T17:49:15.127Z,5.00
2022-08-30T17:51:42.936Z,5.00
2022-08-30T17:54:10.779Z,4.65
2022-08-30T17:56:38.092Z,4.65
2022-08-30T17:59:05.342Z,5.15
2022-08-30T18:01:32.507Z,4.93
2022-08-30T18:04:01.857Z,5.15
2022-08-30T18:06:29.917Z,5.18
2022-08-30T18:08:57.057Z,5.20
2022-08-30T18:11:24.209Z,4.85
2022-08-30T18:13:51.436Z,6.18
2022-08-30T18:16:20.282Z,5.47
2022-08-30T18:18:48.916Z,5.07
2022-08-30T18:21:20.079Z,4.80
2022-08-30T18:23:49.291Z,5.13
2022-08-30T18:26:17.359Z,4.60
2022-08-30T18:28:44.694Z,4.30
2022-08-30T18:31:11.881Z,4.85
2022-08-30T18:33:39.199Z,4.90
2022-08-30T18:36:07.405Z,4.78
2022-08-30T18:38:38.948Z,4.40
2022-08-30T18:41:09.142Z,4.70
2022-08-30T18:43:37.483Z,4.40
2022-08-30T18:46:09.352Z,4.40
2022-08-30T18:48:36.895Z,5.25
2022-08-30T18:51:04.813Z,4.63
2022-08-30T18:53:32.578Z,4.70
2022-08-30T18:56:01.486Z,4.90
2022-08-30T18:58:28.748Z,5.00
2022-08-30T19:00:57.026Z,4.68
2022-08-30T19:03:24.391Z,5.03
2022-08-30T19:05:51.516Z,5.03
2022-08-30T19:08:18.833Z,4.93
2022-08-30T19:10:46.219Z,5.50
2022-08-30T19:13:14.779Z,5.25
2022-08-30T19:15:42.747Z,5.55
2022-08-30T19:18:17.416Z,6.13
2022-08-30T19:20:45.119Z,5.57
2022-08-30T19:23:13.750Z,5.57
2022-08-30T19:25:41.773Z,5.93
2022-08-30T19:28:09.602Z,6.10
2022-08-30T19:30:38.558Z,5.25
2022-08-30T19:33:06.020Z,5.97
2022-08-30T19:35:33.678Z,6.05
2022-08-30T19:38:00.912Z,5.80
2022-08-30T19:40:28.704Z,6.22
2022-08-30T19:42:55.967Z,5.82
2022-08-30T19:45:23.278Z,5.47
2022-08-30T19:47:52.735Z,6.10
2022-08-30T19:50:21.139Z,6.03
2022-08-30T19:52:53.828Z,6.13
2022-08-30T19:57:51.054Z,6.20
2022-08-30T20:00:20.774Z,6.00
2022-08-30T20:02:50.753Z,6.05
2022-08-30T20:05:19.914Z,6.20
2022-08-30T20:07:50.946Z,5.35
2022-08-30T20:10:18.956Z,6.50
2022-08-30T20:12:49.619Z,6.30
2022-08-30T20:15:18.463Z,6.53
2022-08-30T20:18:03.429Z,6.20
2022-08-30T20:20:36.933Z,6.13
2022-08-30T20:23:05.136Z,6.07
2022-08-30T20:25:32.272Z,6.43
2022-08-30T20:28:00.545Z,6.47
2022-08-30T20:30:27.686Z,6.00
2022-08-30T20:32:54.831Z,6.30
2022-08-30T20:35:23.802Z,6.30
2022-08-30T20:37:52.371Z,5.70
2022-08-30T20:40:19.747Z,6.10
2022-08-30T20:42:47.022Z,6.03
2022-08-30T20:45:16.680Z,6.43
2022-08-30T20:47:44.523Z,5.90
2022-08-30T20:50:14.369Z,5.70
2022-08-30T20:52:41.923Z,6.13
2022-08-30T20:55:12.357Z,6.35
2022-08-30T20:57:40.196Z,6.60
2022-08-30T21:00:10.428Z,5.97
2022-08-30T21:02:37.978Z,6.00
2022-08-30T21:05:14.623Z,5.80
2022-08-30T21:07:42.487Z,5.85
2022-08-30T21:10:12.180Z,6.40
2022-08-30T21:12:39.623Z,5.55
2022-08-30T21:15:27.306Z,6.20
2022-08-30T21:17:55.119Z,5.97
2022-08-30T21:20:22.279Z,5.50
2022-08-30T21:22:49.436Z,6.05
2022-08-30T21:25:18.399Z,6.00
2022-08-30T21:27:45.558Z,5.78
2022-08-30T21:30:14.072Z,6.10
2022-08-30T21:32:41.670Z,5.93
2022-08-30T21:35:09.611Z,6.07
2022-08-30T21:37:36.854Z,5.85
2022-08-30T21:40:05.040Z,6.07
2022-08-30T21:42:33.622Z,5.90
2022-08-30T21:45:00.814Z,6.30
2022-08-30T21:47:28.004Z,5.88
2022-08-30T21:49:55.172Z,5.70
2022-08-30T21:52:22.292Z,5.72
2022-08-30T21:54:49.470Z,5.88
2022-08-30T21:57:16.601Z,6.13
2022-08-30T21:59:45.113Z,5.80
2022-08-30T22:02:12.246Z,6.10
2022-08-30T22:04:40.514Z,5.60
2022-08-30T22:07:07.737Z,6.07
2022-08-30T22:09:35.626Z,6.00
2022-08-30T22:12:03.863Z,5.53
2022-08-30T22:14:34.068Z,5.68
2022-08-30T22:17:03.695Z,5.72
2022-08-30T22:19:33.649Z,5.72
2022-08-30T22:22:01.812Z,5.47
2022-08-30T22:24:31.964Z,5.80
2022-08-30T22:27:01.042Z,5.72
2022-08-30T22:29:28.425Z,5.50
2022-08-30T22:31:55.686Z,5.43
2022-08-30T22:34:24.243Z,5.63
2022-08-30T22:36:51.504Z,5.72
2022-08-30T22:39:18.662Z,5.47
2022-08-30T22:41:45.782Z,5.80
2022-08-30T22:44:13.104Z,5.22
2022-08-30T22:46:40.520Z,5.63
2022-08-30T22:49:08.981Z,5.10
2022-08-30T22:51:38.951Z,5.32
2022-08-30T22:54:08.097Z,5.30
2022-08-30T22:56:36.858Z,5.53
2022-08-30T22:59:05.106Z,5.60
2022-08-30T23:01:34.739Z,5.68
2022-08-30T23:04:02.854Z,5.50
2022-08-30T23:06:30.209Z,5.53
2022-08-30T23:08:59.077Z,5.43
2022-08-30T23:11:26.919Z,5.43
2022-08-30T23:13:54.282Z,6.15
2022-08-30T23:16:21.645Z,5.55
2022-08-30T23:18:49.050Z,5.75
2022-08-30T23:21:20.207Z,5.60
2022-08-30T23:23:47.707Z,5.28
2022-08-30T23:26:16.260Z,5.55
2022-08-30T23:28:43.372Z,5.57
2022-08-30T23:31:12.999Z,5.40
2022-08-30T23:33:40.143Z,5.45
2022-08-30T23:36:08.544Z,5.88
2022-08-30T23:38:35.805Z,5.30
2022-08-30T23:41:03.062Z,5.45
2022-08-30T23:43:31.564Z,6.05
2022-08-30T23:45:58.872Z,5.50
2022-08-30T23:48:26.268Z,5.50
2022-08-30T23:50:53.386Z,5.40
2022-08-30T23:53:20.525Z,5.38
2022-08-30T23:55:47.676Z,5.22
2022-08-30T23:58:14.797Z,5.40
